Time;durP1;ratioP1;P1;durP2;ratioP2;P2;SDS_P1;SDS_P2;PMS_P1;PMS_P2;Temp;Humidity;BMP_temperature;BMP_pressure;BME280_temperature;BME280_humidity;BME280_pressure;Samples;Min_cycle;Max_cycle;Signal;HPM_P1;HPM_P2
2021/07/16 00:01:23;;;;;;;5.00;2.40;;;19.70;85.70;;;;;;5017805;28;20208;-88
2021/07/16 00:03:49;;;;;;;3.42;2.20;;;19.70;85.90;;;;;;4999746;28;20612;-89
2021/07/16 00:06:15;;;;;;;3.00;2.30;;;19.70;85.80;;;;;;5032216;28;20218;-88
2021/07/16 00:08:41;;;;;;;2.15;2.05;;;19.70;85.30;;;;;;5037339;28;20522;-89
2021/07/16 00:11:07;;;;;;;3.95;2.08;;;19.60;85.40;;;;;;5036893;28;20188;-88
2021/07/16 00:13:33;;;;;;;3.45;2.28;;;19.60;85.00;;;;;;5036078;28;20364;-89
2021/07/16 00:15:58;;;;;;;2.28;2.08;;;19.70;85.00;;;;;;5036144;28;20731;-89
2021/07/16 00:18:24;;;;;;;2.75;2.17;;;19.80;84.70;;;;;;5029333;28;20224;-89
2021/07/16 00:20:50;;;;;;;3.58;2.60;;;19.80;84.20;;;;;;5009582;28;20570;-89
2021/07/16 00:23:16;;;;;;;2.58;2.20;;;19.80;84.10;;;;;;5014386;28;20662;-89
2021/07/16 00:25:42;;;;;;;4.05;2.60;;;19.80;83.80;;;;;;4998049;28;20274;-87
2021/07/16 00:28:08;;;;;;;4.00;2.90;;;19.70;84.00;;;;;;5015664;28;20750;-88
2021/07/16 00:30:34;;;;;;;3.97;2.30;;;19.60;84.40;;;;;;5018561;28;20197;-89
2021/07/16 00:33:01;;;;;;;2.90;2.38;;;19.50;84.90;;;;;;4998973;28;20178;-87
2021/07/16 00:35:26;;;;;;;2.88;2.30;;;19.50;84.80;;;;;;5016730;28;20220;-88
2021/07/16 00:37:52;;;;;;;3.25;2.28;;;19.60;85.10;;;;;;5014246;28;20652;-89
2021/07/16 00:40:18;;;;;;;4.03;2.58;;;19.60;84.80;;;;;;5015003;28;20666;-89
2021/07/16 00:42:44;;;;;;;2.78;2.28;;;19.50;85.10;;;;;;5014194;28;20185;-88
2021/07/16 00:45:12;;;;;;;3.45;2.70;;;19.50;85.10;;;;;;5026210;28;20685;-88
2021/07/16 00:47:39;;;;;;;5.80;2.20;;;19.40;84.50;;;;;;5011861;28;20199;-88
2021/07/16 00:50:12;;;;;;;5.82;2.10;;;19.30;85.40;;;;;;5017202;28;20184;-88
2021/07/16 00:52:40;;;;;;;2.50;2.30;;;19.20;85.10;;;;;;5017100;28;20171;-88
2021/07/16 00:55:07;;;;;;;2.65;2.13;;;19.00;86.40;;;;;;5015656;28;20202;-88
2021/07/16 00:57:33;;;;;;;2.25;2.13;;;18.90;87.30;;;;;;5018223;28;20201;-88
2021/07/16 00:59:59;;;;;;;4.93;2.28;;;18.90;87.50;;;;;;5025914;28;20195;-88
2021/07/16 01:02:26;;;;;;;2.85;2.45;;;18.90;87.30;;;;;;5015363;28;20178;-88
2021/07/16 01:04:52;;;;;;;3.55;2.30;;;19.00;87.20;;;;;;5013749;28;20686;-88
2021/07/16 01:07:18;;;;;;;2.40;2.28;;;19.10;87.10;;;;;;5016338;28;20190;-88
2021/07/16 01:09:46;;;;;;;2.58;2.15;;;19.10;86.50;;;;;;4997330;28;20220;-88
2021/07/16 01:12:12;;;;;;;2.22;2.10;;;19.10;85.90;;;;;;5012292;28;20201;-88
2021/07/16 01:14:38;;;;;;;2.97;2.25;;;19.10;85.70;;;;;;5014697;28;20193;-88
2021/07/16 01:17:04;;;;;;;3.28;2.22;;;19.20;85.30;;;;;;4987955;28;20204;-88
2021/07/16 01:20:00;;;;;;;2.47;2.35;;;19.20;84.90;;;;;;5013201;28;20189;-89
2021/07/16 01:22:31;;;;;;;2.38;2.17;;;19.00;85.00;;;;;;5010317;28;20213;-88
2021/07/16 01:24:59;;;;;;;3.13;2.22;;;18.90;85.90;;;;;;5016308;28;20201;-88
2021/07/16 01:27:24;;;;;;;2.75;2.42;;;18.90;86.30;;;;;;4994392;28;20185;-88
2021/07/16 01:29:51;;;;;;;8.07;2.60;;;18.90;86.20;;;;;;5012904;28;20205;-88
2021/07/16 01:32:17;;;;;;;2.35;2.15;;;19.00;86.10;;;;;;5012507;28;20232;-88
2021/07/16 01:34:44;;;;;;;3.13;2.47;;;19.10;86.10;;;;;;4996846;28;20574;-88
2021/07/16 01:37:10;;;;;;;2.50;2.30;;;19.10;86.00;;;;;;5014345;28;20344;-88
2021/07/16 01:39:36;;;;;;;4.40;2.22;;;19.10;85.80;;;;;;5006422;28;20230;-88
2021/07/16 01:42:04;;;;;;;2.78;2.58;;;19.10;85.90;;;;;;5005752;28;20189;-88
2021/07/16 01:44:30;;;;;;;3.78;2.50;;;19.10;86.20;;;;;;4987462;28;20186;-88
2021/07/16 01:46:56;;;;;;;3.70;2.58;;;19.10;86.00;;;;;;4977092;28;20209;-88
2021/07/16 01:49:21;;;;;;;2.92;2.35;;;19.10;85.90;;;;;;4962243;28;20302;-88
2021/07/16 01:51:47;;;;;;;2.80;2.50;;;19.00;86.00;;;;;;4987670;28;20190;-89
2021/07/16 01:54:13;;;;;;;2.53;2.33;;;19.10;86.10;;;;;;5016137;28;20193;-88
2021/07/16 01:56:39;;;;;;;3.10;2.42;;;19.10;86.40;;;;;;5012312;28;20214;-89
2021/07/16 01:59:04;;;;;;;2.90;2.53;;;19.10;86.30;;;;;;5013269;28;20192;-88
2021/07/16 02:01:30;;;;;;;3.42;2.47;;;19.10;85.60;;;;;;4996046;28;20239;-88
2021/07/16 02:03:56;;;;;;;3.95;2.63;;;18.80;87.00;;;;;;5013330;28;20189;-88
2021/07/16 02:06:22;;;;;;;4.55;2.70;;;18.70;88.10;;;;;;5012526;28;20567;-88
2021/07/16 02:08:47;;;;;;;2.53;2.33;;;18.60;88.30;;;;;;5029239;28;20204;-88
2021/07/16 02:11:13;;;;;;;2.88;2.33;;;18.60;88.50;;;;;;5015354;28;20689;-88
2021/07/16 02:13:39;;;;;;;2.45;2.35;;;18.70;88.60;;;;;;5015254;28;20193;-88
2021/07/16 02:16:05;;;;;;;3.35;2.70;;;18.80;88.80;;;;;;5014949;28;20202;-88
2021/07/16 02:18:31;;;;;;;5.95;2.72;;;18.80;88.10;;;;;;5014420;28;20248;-88
2021/07/16 02:20:57;;;;;;;3.63;2.85;;;18.90;88.40;;;;;;5015193;28;20745;-88
2021/07/16 02:23:28;;;;;;;2.95;2.60;;;19.00;88.60;;;;;;5012827;28;20262;-88
2021/07/16 02:25:54;;;;;;;2.67;2.40;;;19.00;88.30;;;;;;5017812;28;20902;-88
2021/07/16 02:28:22;;;;;;;6.43;2.75;;;19.00;88.30;;;;;;5013995;28;20220;-88
2021/07/16 02:30:49;;;;;;;5.32;2.65;;;18.90;87.70;;;;;;4993717;28;20870;-88
2021/07/16 02:33:15;;;;;;;3.85;2.40;;;18.90;87.90;;;;;;5010457;28;20229;-88
2021/07/16 02:35:43;;;;;;;3.30;2.50;;;19.00;87.60;;;;;;5012846;28;20208;-88
2021/07/16 02:38:09;;;;;;;2.40;2.10;;;19.00;87.50;;;;;;5010538;28;20245;-88
2021/07/16 02:40:35;;;;;;;2.38;2.20;;;18.90;88.60;;;;;;5013087;28;20213;-88
2021/07/16 02:43:02;;;;;;;2.45;2.28;;;19.00;87.70;;;;;;4982107;28;20186;-88
2021/07/16 02:45:27;;;;;;;5.15;2.40;;;19.00;87.60;;;;;;4999572;28;20201;-88
2021/07/16 02:47:53;;;;;;;3.55;2.33;;;19.10;87.80;;;;;;5012079;28;20277;-88
2021/07/16 02:50:23;;;;;;;6.07;2.47;;;19.20;87.10;;;;;;5006646;28;20565;-88
2021/07/16 02:52:50;;;;;;;2.83;2.58;;;19.20;86.80;;;;;;5012091;28;20198;-88
2021/07/16 02:55:17;;;;;;;3.42;2.47;;;19.30;86.70;;;;;;5013058;28;20221;-88
2021/07/16 02:57:42;;;;;;;3.97;3.30;;;19.30;86.80;;;;;;5012003;28;20236;-88
2021/07/16 03:00:15;;;;;;;3.15;2.80;;;19.30;87.50;;;;;;5013079;28;20539;-88
2021/07/16 03:02:42;;;;;;;5.72;3.40;;;19.40;86.90;;;;;;5011554;28;20203;-88
2021/07/16 03:05:10;;;;;;;4.63;2.70;;;19.40;86.50;;;;;;5011042;28;20219;-88
2021/07/16 03:07:36;;;;;;;4.38;2.92;;;19.40;87.00;;;;;;5013046;28;20199;-89
2021/07/16 03:10:06;;;;;;;4.53;2.83;;;19.40;86.80;;;;;;5012928;28;20646;-89
2021/07/16 03:12:31;;;;;;;3.72;2.70;;;19.40;86.80;;;;;;5010534;28;20184;-88
2021/07/16 03:14:57;;;;;;;4.65;3.03;;;19.40;87.00;;;;;;4996031;28;20212;-88
2021/07/16 03:17:23;;;;;;;3.30;2.95;;;19.30;86.80;;;;;;5012976;28;20211;-88
2021/07/16 03:19:48;;;;;;;5.05;3.28;;;19.30;87.20;;;;;;5013188;28;20194;-88
2021/07/16 03:22:14;;;;;;;7.13;3.55;;;19.20;87.80;;;;;;5013229;28;20186;-88
2021/07/16 03:24:40;;;;;;;6.78;3.83;;;19.20;88.00;;;;;;5013490;28;20193;-88
2021/07/16 03:27:05;;;;;;;8.77;4.32;;;19.30;88.20;;;;;;4997460;28;20199;-88
2021/07/16 03:29:31;;;;;;;11.30;4.95;;;19.30;88.50;;;;;;5008975;28;20253;-89
2021/07/16 03:31:57;;;;;;;8.13;4.50;;;19.20;89.20;;;;;;4994839;28;20193;-88
2021/07/16 03:34:22;;;;;;;11.02;4.30;;;19.10;89.40;;;;;;5015283;28;20236;-88
2021/07/16 03:36:48;;;;;;;5.43;4.50;;;19.10;89.80;;;;;;5012141;28;20692;-89
2021/07/16 03:39:14;;;;;;;4.65;4.22;;;19.20;89.30;;;;;;5001167;28;20204;-89
2021/07/16 03:41:39;;;;;;;9.00;5.30;;;19.30;89.40;;;;;;5010233;28;20186;-88
2021/07/16 03:44:05;;;;;;;4.93;4.13;;;19.30;89.40;;;;;;5011327;28;20259;-89
2021/07/16 03:46:31;;;;;;;5.50;4.93;;;19.40;88.90;;;;;;5016961;28;20289;-88
2021/07/16 03:48:57;;;;;;;4.35;3.90;;;19.40;88.90;;;;;;5023701;28;20196;-89
2021/07/16 03:51:23;;;;;;;4.07;3.67;;;19.40;89.40;;;;;;5024101;28;20266;-88
2021/07/16 03:53:49;;;;;;;4.40;3.70;;;19.40;89.10;;;;;;5020293;28;20233;-88
2021/07/16 03:56:14;;;;;;;4.90;4.03;;;19.40;89.10;;;;;;5019765;28;20229;-88
2021/07/16 03:58:41;;;;;;;6.50;4.47;;;19.40;89.30;;;;;;5018972;28;20237;-88
2021/07/16 04:01:06;;;;;;;6.32;5.20;;;19.40;89.30;;;;;;5011892;28;20184;-88
2021/07/16 04:03:32;;;;;;;4.32;3.92;;;19.40;89.40;;;;;;5013454;28;20780;-88
2021/07/16 04:05:58;;;;;;;5.75;3.60;;;19.50;89.50;;;;;;4995157;28;20233;-88
2021/07/16 04:08:24;;;;;;;6.47;4.07;;;19.40;90.00;;;;;;4993789;28;20278;-88
2021/07/16 04:10:49;;;;;;;5.07;4.63;;;19.40;89.80;;;;;;4992679;28;20195;-89
2021/07/16 04:13:15;;;;;;;6.82;4.28;;;19.20;91.30;;;;;;4992682;28;20189;-88
2021/07/16 04:15:42;;;;;;;6.57;4.25;;;19.00;92.20;;;;;;5009935;28;20212;-88
2021/07/16 04:18:09;;;;;;;5.88;4.47;;;19.10;91.10;;;;;;5023709;28;20226;-88
2021/07/16 04:20:36;;;;;;;9.52;4.30;;;19.30;91.30;;;;;;5023959;28;20240;-88
2021/07/16 04:23:03;;;;;;;4.50;4.03;;;19.20;91.50;;;;;;5034232;28;20209;-89
2021/07/16 04:25:29;;;;;;;5.53;4.78;;;19.20;91.50;;;;;;5032771;28;20203;-88
2021/07/16 04:28:03;;;;;;;4.82;4.30;;;19.30;91.30;;;;;;5017953;28;20239;-88
2021/07/16 04:30:30;;;;;;;4.97;4.50;;;19.30;90.90;;;;;;5034926;28;20175;-89
2021/07/16 04:32:59;;;;;;;5.13;4.65;;;19.40;91.00;;;;;;5035056;28;20186;-88
2021/07/16 04:35:25;;;;;;;6.88;4.75;;;19.40;90.90;;;;;;5022009;28;20262;-88
2021/07/16 04:37:51;;;;;;;7.95;4.50;;;19.40;91.20;;;;;;5025704;28;20210;-89
2021/07/16 04:40:20;;;;;;;6.00;5.38;;;19.40;91.00;;;;;;4998734;28;20646;-88
2021/07/16 04:42:46;;;;;;;5.93;4.72;;;19.30;91.10;;;;;;5014448;28;20190;-88
2021/07/16 04:45:13;;;;;;;5.40;4.90;;;19.30;91.70;;;;;;5016087;28;20230;-88
2021/07/16 04:47:39;;;;;;;6.25;5.22;;;19.30;91.70;;;;;;5014995;28;20193;-88
2021/07/16 04:50:06;;;;;;;7.97;6.90;;;19.40;91.40;;;;;;4996608;28;20190;-89
2021/07/16 04:52:41;;;;;;;7.95;6.53;;;19.30;91.80;;;;;;5003761;28;20198;-89
2021/07/16 04:55:08;;;;;;;10.23;7.22;;;19.50;91.70;;;;;;5001172;28;20211;-88
2021/07/16 04:57:34;;;;;;;10.25;9.23;;;19.50;91.70;;;;;;5011680;28;20213;-89
2021/07/16 04:59:59;;;;;;;11.00;10.10;;;19.50;92.10;;;;;;5014804;28;20211;-89
2021/07/16 05:02:25;;;;;;;9.55;8.75;;;19.50;92.30;;;;;;5015752;28;20185;-89
2021/07/16 05:04:51;;;;;;;9.32;8.48;;;19.50;92.70;;;;;;4995870;28;20186;-88
2021/07/16 05:07:17;;;;;;;11.25;9.40;;;19.50;92.30;;;;;;5015744;28;20213;-89
2021/07/16 05:09:43;;;;;;;10.07;9.07;;;19.50;92.30;;;;;;5013160;28;20241;-89
2021/07/16 05:12:09;;;;;;;9.52;8.60;;;19.50;92.00;;;;;;5026451;28;20296;-88
2021/07/16 05:14:34;;;;;;;8.95;8.13;;;19.60;91.80;;;;;;4997283;28;20254;-88
2021/07/16 05:17:00;;;;;;;10.30;9.50;;;19.70;91.90;;;;;;4995945;28;20212;-88
2021/07/16 05:19:26;;;;;;;10.57;9.57;;;19.70;91.90;;;;;;4995949;28;20215;-89
2021/07/16 05:21:51;;;;;;;12.25;9.38;;;19.50;92.60;;;;;;4995735;28;20659;-88
2021/07/16 05:24:17;;;;;;;9.93;9.02;;;19.60;92.80;;;;;;5008341;28;20269;-89
2021/07/16 05:26:43;;;;;;;10.93;10.02;;;19.60;92.50;;;;;;5011370;28;20229;-88
2021/07/16 05:29:08;;;;;;;11.63;10.38;;;19.50;93.60;;;;;;4995472;28;20213;-88
2021/07/16 05:31:34;;;;;;;12.63;11.60;;;19.40;94.60;;;;;;5011319;28;20319;-89
2021/07/16 05:33:59;;;;;;;11.48;10.43;;;19.20;95.70;;;;;;4995463;28;20205;-89
2021/07/16 05:36:25;;;;;;;11.35;10.43;;;19.20;95.10;;;;;;5012357;28;20205;-89
2021/07/16 05:38:52;;;;;;;11.55;10.38;;;19.30;94.70;;;;;;4988771;28;20673;-89
2021/07/16 05:41:18;;;;;;;11.45;10.50;;;19.30;95.40;;;;;;5015097;28;20190;-89
2021/07/16 05:43:43;;;;;;;12.80;11.50;;;19.20;95.00;;;;;;5010605;28;20252;-89
2021/07/16 05:46:09;;;;;;;12.23;11.05;;;19.30;95.30;;;;;;5008987;28;20213;-89
2021/07/16 05:48:36;;;;;;;13.63;12.30;;;19.20;96.10;;;;;;5013131;28;20573;-89
2021/07/16 05:51:02;;;;;;;14.45;13.15;;;19.20;96.50;;;;;;5013051;28;20614;-88
2021/07/16 05:53:29;;;;;;;14.73;13.32;;;19.00;97.10;;;;;;4997032;28;20191;-87
2021/07/16 05:55:55;;;;;;;14.15;12.95;;;19.00;97.40;;;;;;4996573;28;20620;-88
2021/07/16 05:58:20;;;;;;;15.82;14.52;;;19.10;97.20;;;;;;5022340;28;20205;-89
2021/07/16 06:00:46;;;;;;;14.23;13.05;;;19.30;95.50;;;;;;5017449;28;20221;-89
2021/07/16 06:03:12;;;;;;;14.45;13.30;;;19.50;95.00;;;;;;5014888;28;20669;-89
2021/07/16 06:05:47;;;;;;;14.45;13.23;;;19.60;94.60;;;;;;5015458;28;20194;-89
2021/07/16 06:08:13;;;;;;;13.60;12.50;;;19.60;94.20;;;;;;5015440;28;20257;-89
2021/07/16 06:10:38;;;;;;;13.95;12.65;;;19.70;93.80;;;;;;5014025;28;20275;-89
2021/07/16 06:13:04;;;;;;;13.45;12.25;;;19.70;93.80;;;;;;5015290;28;20232;-89
2021/07/16 06:15:30;;;;;;;14.00;12.80;;;19.70;93.50;;;;;;5017601;28;20233;-89
2021/07/16 06:17:56;;;;;;;13.38;12.27;;;19.70;93.20;;;;;;5017392;28;20263;-89
2021/07/16 06:20:21;;;;;;;15.13;13.55;;;19.70;93.00;;;;;;5016920;28;20181;-89
2021/07/16 06:22:47;;;;;;;13.13;12.02;;;19.60;93.60;;;;;;5016206;28;20916;-89
2021/07/16 06:25:14;;;;;;;12.20;11.20;;;19.50;93.80;;;;;;5015006;28;20202;-89
2021/07/16 06:27:40;;;;;;;12.35;11.25;;;19.60;93.40;;;;;;5015506;28;20225;-89
2021/07/16 06:30:08;;;;;;;13.15;11.85;;;19.70;92.90;;;;;;5017384;28;20182;-89
2021/07/16 06:32:33;;;;;;;11.25;10.25;;;19.80;91.80;;;;;;5020840;28;20320;-89
2021/07/16 06:34:59;;;;;;;12.30;11.27;;;19.80;91.80;;;;;;5018069;28;20256;-90
2021/07/16 06:37:25;;;;;;;11.48;10.57;;;19.80;91.50;;;;;;5015394;28;20213;-89
2021/07/16 06:39:50;;;;;;;11.52;10.43;;;20.00;92.40;;;;;;4998044;28;20251;-90
2021/07/16 06:42:17;;;;;;;11.10;10.18;;;20.00;92.00;;;;;;5018260;28;20805;-89
2021/07/16 06:44:43;;;;;;;10.00;9.10;;;20.10;91.00;;;;;;5016529;28;20174;-90
2021/07/16 06:47:10;;;;;;;9.65;8.85;;;20.20;89.80;;;;;;5026196;28;20192;-89
2021/07/16 06:49:36;;;;;;;11.43;10.43;;;20.30;89.10;;;;;;5020116;28;20189;-88
2021/07/16 06:52:02;;;;;;;12.40;11.23;;;20.10;90.60;;;;;;5016355;28;20193;-89
2021/07/16 06:54:29;;;;;;;10.43;9.38;;;20.20;89.50;;;;;;5015015;28;20227;-89
2021/07/16 06:56:55;;;;;;;13.25;9.68;;;20.20;89.40;;;;;;5015138;28;20195;-89
2021/07/16 06:59:21;;;;;;;10.85;9.82;;;20.20;90.70;;;;;;5014659;28;20182;-88
2021/07/16 07:01:48;;;;;;;10.20;9.30;;;20.30;89.20;;;;;;5014917;28;20176;-91
2021/07/16 07:04:13;;;;;;;9.70;8.80;;;20.50;88.90;;;;;;5009421;28;20195;-90
2021/07/16 07:06:39;;;;;;;9.38;8.57;;;20.40;89.70;;;;;;5010396;28;20208;-87
2021/07/16 07:09:05;;;;;;;9.73;8.93;;;20.40;88.70;;;;;;5013408;28;20212;-85
2021/07/16 07:11:30;;;;;;;9.38;8.57;;;20.30;91.10;;;;;;5012340;28;20250;-87
2021/07/16 07:13:56;;;;;;;8.63;7.97;;;20.30;90.60;;;;;;5010193;28;20232;-87
2021/07/16 07:16:22;;;;;;;8.05;7.43;;;20.50;87.30;;;;;;5008082;28;20215;-86
2021/07/16 07:18:48;;;;;;;10.07;9.05;;;20.50;86.20;;;;;;4987748;28;20261;-85
2021/07/16 07:21:14;;;;;;;8.98;8.27;;;20.60;88.00;;;;;;5009240;28;20193;-87
2021/07/16 07:23:41;;;;;;;8.07;7.38;;;20.50;87.10;;;;;;5011025;28;20186;-86
2021/07/16 07:26:08;;;;;;;7.90;7.22;;;20.40;87.00;;;;;;4989960;28;20307;-88
2021/07/16 07:28:33;;;;;;;8.13;7.53;;;20.60;85.60;;;;;;5011449;28;20340;-89
2021/07/16 07:30:59;;;;;;;7.93;7.32;;;20.90;84.90;;;;;;5014497;28;20651;-89
2021/07/16 07:33:25;;;;;;;7.82;7.13;;;20.90;83.50;;;;;;4987061;28;20200;-88
2021/07/16 07:35:51;;;;;;;7.13;6.63;;;21.10;82.60;;;;;;5012260;28;20227;-88
2021/07/16 07:38:16;;;;;;;9.02;8.23;;;21.10;83.90;;;;;;4995474;28;20212;-88
2021/07/16 07:40:42;;;;;;;7.55;6.95;;;21.00;84.70;;;;;;5009120;28;20562;-89
2021/07/16 07:43:08;;;;;;;7.25;6.65;;;21.10;83.90;;;;;;5010015;28;20194;-88
2021/07/16 07:45:34;;;;;;;7.28;6.72;;;21.20;83.10;;;;;;5013398;28;20272;-88
2021/07/16 07:48:00;;;;;;;6.75;6.22;;;21.00;83.00;;;;;;5010309;28;20196;-88
2021/07/16 07:50:27;;;;;;;7.35;6.68;;;21.20;83.90;;;;;;5011557;28;20186;-88
2021/07/16 07:52:54;;;;;;;6.88;6.13;;;21.40;82.10;;;;;;4996690;28;20208;-88
2021/07/16 07:55:21;;;;;;;5.80;5.32;;;21.70;81.20;;;;;;5011695;28;20213;-90
2021/07/16 07:57:48;;;;;;;5.65;5.25;;;22.00;80.50;;;;;;5012797;28;20214;-88
2021/07/16 08:00:17;;;;;;;5.80;5.30;;;22.10;80.40;;;;;;5018457;28;20170;-88
2021/07/16 08:02:43;;;;;;;5.55;5.05;;;22.00;78.70;;;;;;5015342;28;20759;-88
2021/07/16 08:05:10;;;;;;;6.03;4.50;;;22.20;78.20;;;;;;5012619;28;20221;-88
2021/07/16 08:07:36;;;;;;;5.25;4.75;;;22.60;78.20;;;;;;5016012;28;20200;-89
2021/07/16 08:10:08;;;;;;;5.30;4.80;;;22.60;78.40;;;;;;5015771;28;20212;-89
2021/07/16 08:12:35;;;;;;;5.40;5.00;;;22.80;76.60;;;;;;5012784;28;20213;-88
2021/07/16 08:15:01;;;;;;;4.93;4.53;;;23.10;76.40;;;;;;5018704;28;20887;-88
2021/07/16 08:17:27;;;;;;;6.30;5.15;;;23.20;76.20;;;;;;5027070;28;20279;-89
2021/07/16 08:19:53;;;;;;;6.68;5.47;;;23.20;74.70;;;;;;5033628;28;20186;-89
2021/07/16 08:22:18;;;;;;;4.95;4.63;;;23.10;74.30;;;;;;5031126;28;20573;-88
2021/07/16 08:24:44;;;;;;;5.22;4.72;;;22.90;75.00;;;;;;5015960;28;20593;-88
2021/07/16 08:27:10;;;;;;;7.15;5.25;;;22.80;77.00;;;;;;5015510;28;20194;-89
2021/07/16 08:29:36;;;;;;;5.00;4.60;;;22.70;77.20;;;;;;5011061;28;20197;-88
2021/07/16 08:32:01;;;;;;;5.50;5.00;;;22.70;76.70;;;;;;4998029;28;20182;-89
2021/07/16 08:34:27;;;;;;;5.28;4.82;;;22.70;76.30;;;;;;4996208;28;20208;-89
2021/07/16 08:36:53;;;;;;;4.95;4.55;;;22.60;77.00;;;;;;4995860;28;20559;-89
2021/07/16 08:39:19;;;;;;;5.32;4.80;;;22.60;76.40;;;;;;4994068;28;20292;-89
2021/07/16 08:41:44;;;;;;;6.80;4.93;;;22.70;76.20;;;;;;5016436;28;20284;-89
2021/07/16 08:44:10;;;;;;;5.53;5.10;;;22.80;76.20;;;;;;5017387;28;20261;-88
2021/07/16 08:46:36;;;;;;;4.95;4.55;;;22.80;75.00;;;;;;5017572;28;20198;-89
2021/07/16 08:49:03;;;;;;;6.68;5.90;;;22.90;75.10;;;;;;4994832;28;20658;-89
2021/07/16 08:51:29;;;;;;;6.47;5.63;;;23.10;74.00;;;;;;4995646;28;20605;-89
2021/07/16 08:53:56;;;;;;;5.78;5.25;;;23.30;71.80;;;;;;5017700;28;20189;-89
2021/07/16 08:56:23;;;;;;;5.70;5.20;;;23.40;72.30;;;;;;5017768;28;20224;-89
2021/07/16 08:58:49;;;;;;;5.53;4.88;;;23.60;71.10;;;;;;5017854;28;20239;-89
2021/07/16 09:01:15;;;;;;;5.10;4.70;;;23.60;71.10;;;;;;5016600;28;20268;-89
2021/07/16 09:04:01;;;;;;;7.22;4.82;;;23.70;71.50;;;;;;5017199;28;20205;-89
2021/07/16 09:06:49;;;;;;;5.70;4.80;;;23.90;71.30;;;;;;5016405;28;20284;-89
2021/07/16 09:09:26;;;;;;;5.75;5.10;;;24.10;70.20;;;;;;5015796;28;20186;-89
2021/07/16 09:11:55;;;;;;;5.30;4.90;;;24.00;70.10;;;;;;5016055;28;20173;-90
2021/07/16 09:14:29;;;;;;;5.28;4.78;;;24.10;68.60;;;;;;5022088;28;20236;-89
2021/07/16 09:17:04;;;;;;;5.20;4.80;;;24.30;67.60;;;;;;5020611;28;20574;-88
2021/07/16 09:19:30;;;;;;;4.82;4.45;;;24.10;68.40;;;;;;5025485;28;20185;-89
2021/07/16 09:22:16;;;;;;;4.90;4.38;;;24.40;66.60;;;;;;5037280;28;20169;-89
2021/07/16 09:24:56;;;;;;;4.57;4.18;;;24.30;65.70;;;;;;5037640;28;20185;-89
2021/07/16 09:27:44;;;;;;;4.80;4.20;;;24.30;67.80;;;;;;5021296;28;20170;-90
2021/07/16 09:30:21;;;;;;;4.97;4.68;;;24.60;64.50;;;;;;5035098;28;20200;-89
2021/07/16 09:32:52;;;;;;;4.43;4.07;;;24.30;64.80;;;;;;5036457;28;20215;-89
2021/07/16 09:35:26;;;;;;;5.47;5.05;;;24.10;67.60;;;;;;5037306;28;20214;-90
2021/07/16 09:37:59;;;;;;;5.15;4.65;;;24.00;67.70;;;;;;5036051;28;20220;-89
2021/07/16 09:40:46;;;;;;;5.90;4.72;;;24.20;67.00;;;;;;5026873;28;20170;-89
2021/07/16 09:43:11;;;;;;;5.97;3.80;;;24.50;65.10;;;;;;5035705;28;20181;-89
2021/07/16 09:45:43;;;;;;;5.10;4.30;;;24.50;64.50;;;;;;5036642;28;20193;-89
2021/07/16 09:48:34;;;;;;;6.75;4.65;;;24.40;65.50;;;;;;5017991;28;20209;-89
2021/07/16 09:51:10;;;;;;;7.97;4.80;;;24.30;66.90;;;;;;5032557;28;20213;-90
2021/07/16 09:53:53;;;;;;;4.15;3.85;;;24.40;66.60;;;;;;5035414;28;20248;-89
2021/07/16 09:56:23;;;;;;;4.72;4.32;;;24.80;64.50;;;;;;5029203;28;20228;-88
2021/07/16 09:59:10;;;;;;;5.10;4.65;;;25.10;62.60;;;;;;5001792;28;20205;-87
2021/07/16 10:01:44;;;;;;;4.35;4.03;;;25.20;64.40;;;;;;5017811;28;20209;-88
2021/07/16 10:04:20;;;;;;;4.53;4.13;;;25.40;61.30;;;;;;5045940;28;20185;-88
2021/07/16 10:06:47;;;;;;;4.68;4.38;;;25.50;60.70;;;;;;5055585;28;20201;-87
2021/07/16 10:09:17;;;;;;;4.53;4.10;;;25.20;62.00;;;;;;5037024;28;20248;-88
2021/07/16 10:11:50;;;;;;;5.15;4.68;;;25.00;64.70;;;;;;5054911;28;20207;-88
2021/07/16 10:14:16;;;;;;;5.82;4.53;;;24.90;64.30;;;;;;5056726;28;20157;-88
2021/07/16 10:16:46;;;;;;;7.38;4.70;;;24.90;64.00;;;;;;5056262;28;20197;-88
2021/07/16 10:19:13;;;;;;;4.60;4.20;;;25.20;63.30;;;;;;5053288;28;20213;-88
2021/07/16 10:21:42;;;;;;;6.75;4.63;;;25.60;61.20;;;;;;5033993;28;20170;-87
2021/07/16 10:24:09;;;;;;;6.30;4.60;;;25.90;60.00;;;;;;5027567;28;20170;-88
2021/07/16 10:26:35;;;;;;;4.90;4.60;;;26.30;59.60;;;;;;5020441;28;20197;-89
2021/07/16 10:29:00;;;;;;;5.05;4.65;;;26.40;59.80;;;;;;5018561;28;20589;-88
2021/07/16 10:31:29;;;;;;;4.75;4.35;;;26.80;57.00;;;;;;5020330;28;20185;-88
2021/07/16 10:33:59;;;;;;;7.40;4.55;;;26.70;57.50;;;;;;5019264;28;20193;-89
2021/07/16 10:36:49;;;;;;;5.45;4.63;;;26.80;57.00;;;;;;5018997;28;20214;-88
2021/07/16 10:39:39;;;;;;;4.82;4.53;;;26.70;56.50;;;;;;5019328;28;20194;-88
2021/07/16 10:42:26;;;;;;;4.38;4.05;;;27.10;56.10;;;;;;5018236;28;20182;-88
2021/07/16 10:44:59;;;;;;;5.28;4.60;;;27.70;53.30;;;;;;5019007;28;20244;-88
2021/07/16 10:47:43;;;;;;;4.20;3.80;;;27.40;53.10;;;;;;5018695;28;20165;-88
2021/07/16 10:50:12;;;;;;;4.43;3.90;;;26.80;53.80;;;;;;5019219;28;20177;-88
2021/07/16 10:52:41;;;;;;;4.80;4.20;;;26.40;55.30;;;;;;5019641;28;20182;-88
2021/07/16 10:55:08;;;;;;;4.07;3.78;;;26.10;56.80;;;;;;4999471;28;20237;-88
2021/07/16 10:57:48;;;;;;;4.25;3.83;;;26.10;57.10;;;;;;4999128;28;20194;-89
2021/07/16 11:00:37;;;;;;;3.97;3.70;;;26.50;55.50;;;;;;4998858;28;20248;-89
2021/07/16 11:03:10;;;;;;;4.10;3.80;;;26.50;54.00;;;;;;4999167;28;20647;-89
2021/07/16 11:05:39;;;;;;;3.85;3.58;;;26.40;53.30;;;;;;4998825;28;20194;-89
2021/07/16 11:08:42;;;;;;;3.88;3.67;;;26.40;54.50;;;;;;5007671;28;20190;-89
2021/07/16 11:11:12;;;;;;;4.00;3.80;;;26.30;55.10;;;;;;5019764;28;20185;-91
2021/07/16 11:13:44;;;;;;;3.92;3.67;;;26.30;55.20;;;;;;5018148;28;20177;-92
2021/07/16 11:16:16;;;;;;;3.75;3.50;;;26.30;54.20;;;;;;5018401;28;20210;-92
2021/07/16 11:18:58;;;;;;;3.45;3.15;;;26.20;53.80;;;;;;5019559;28;20320;-91
2021/07/16 11:21:42;;;;;;;4.13;3.60;;;26.20;55.60;;;;;;5018322;28;20178;-91
2021/07/16 11:24:17;;;;;;;3.78;3.47;;;26.40;55.00;;;;;;5018957;28;20202;-90
2021/07/16 11:26:47;;;;;;;4.20;3.90;;;27.00;54.00;;;;;;5018519;28;20280;-89
2021/07/16 11:29:13;;;;;;;4.03;3.72;;;27.40;51.50;;;;;;5022664;28;20355;-90
2021/07/16 11:31:40;;;;;;;3.92;3.63;;;27.30;51.90;;;;;;5013893;28;20181;-90
2021/07/16 11:34:10;;;;;;;4.05;3.75;;;27.50;51.00;;;;;;5017006;28;20193;-89
2021/07/16 11:36:36;;;;;;;3.80;3.50;;;27.50;52.50;;;;;;5016093;28;20214;-91
2021/07/16 11:39:02;;;;;;;3.63;3.42;;;27.40;53.30;;;;;;5017446;28;20209;-91
2021/07/16 11:41:32;;;;;;;4.07;3.65;;;27.20;52.20;;;;;;5025167;28;20276;-92
2021/07/16 11:43:59;;;;;;;4.50;3.45;;;27.00;54.00;;;;;;5010347;28;20178;-92
2021/07/16 11:46:31;;;;;;;4.00;3.70;;;26.80;53.90;;;;;;5025381;28;20244;-90
2021/07/16 11:48:58;;;;;;;4.00;3.70;;;26.80;54.20;;;;;;5035210;28;20196;-90
2021/07/16 11:51:28;;;;;;;4.55;3.55;;;26.80;54.50;;;;;;5026046;28;20185;-90
2021/07/16 11:53:53;;;;;;;3.90;3.60;;;27.20;53.60;;;;;;5029584;28;20181;-90
2021/07/16 11:56:20;;;;;;;4.03;3.72;;;27.40;52.70;;;;;;5034416;28;20546;-91
2021/07/16 11:58:49;;;;;;;4.10;3.80;;;27.60;51.60;;;;;;5020650;28;20298;-90
2021/07/16 12:01:17;;;;;;;5.43;3.70;;;27.90;50.60;;;;;;5018467;28;20189;-91
2021/07/16 12:03:42;;;;;;;3.90;3.70;;;28.10;50.90;;;;;;5018665;28;20245;-88
2021/07/16 12:06:09;;;;;;;4.13;3.83;;;28.00;51.50;;;;;;5016378;28;20228;-90
2021/07/16 12:08:37;;;;;;;4.53;4.22;;;28.50;50.70;;;;;;5026969;28;20237;-91
2021/07/16 12:11:09;;;;;;;4.05;3.75;;;28.70;49.80;;;;;;5033774;28;20164;-90
2021/07/16 12:13:36;;;;;;;4.25;3.83;;;29.30;48.10;;;;;;5027881;28;20217;-89
2021/07/16 12:16:04;;;;;;;4.50;4.10;;;28.80;49.40;;;;;;4995085;28;20206;-93
2021/07/16 12:18:31;;;;;;;5.30;4.53;;;28.90;50.70;;;;;;5008343;28;20282;-90
2021/07/16 12:21:03;;;;;;;5.28;4.80;;;28.80;53.10;;;;;;5018072;28;20197;-89
2021/07/16 12:23:29;;;;;;;4.47;4.18;;;28.90;53.30;;;;;;5021559;28;20201;-90
2021/07/16 12:26:34;;;;;;;4.70;4.38;;;28.60;54.00;;;;;;5021118;28;20240;-92
2021/07/16 12:29:05;;;;;;;5.22;4.72;;;29.10;50.50;;;;;;4993532;28;20201;-92
2021/07/16 12:31:32;;;;;;;5.25;4.22;;;28.80;51.60;;;;;;4992099;28;20303;-92
2021/07/16 12:33:58;;;;;;;4.22;3.92;;;28.80;52.10;;;;;;5006993;28;20220;-92
2021/07/16 12:36:31;;;;;;;3.88;3.47;;;28.90;46.60;;;;;;5019374;28;20260;-92
2021/07/16 12:38:57;;;;;;;5.85;3.80;;;28.70;48.90;;;;;;5008941;28;20206;-91
2021/07/16 12:41:23;;;;;;;2.78;2.53;;;28.60;47.70;;;;;;5017351;28;20193;-92
2021/07/16 12:43:50;;;;;;;2.65;2.45;;;28.60;43.30;;;;;;5015420;28;20174;-91
2021/07/16 12:46:26;;;;;;;2.47;2.38;;;28.40;43.10;;;;;;5024796;28;20213;-92
2021/07/16 12:48:53;;;;;;;2.67;2.53;;;28.50;44.20;;;;;;5017166;28;20188;-92